Time;durP1;ratioP1;P1;durP2;ratioP2;P2;SDS_P1;SDS_P2;PMS_P1;PMS_P2;Temp;Humidity;BMP_temperature;BMP_pressure;BME280_temperature;BME280_humidity;BME280_pressure;Samples;Min_cycle;Max_cycle;Signal;HPM_P1;HPM_P2
2022/06/17 00:01:27;;;;;;;10.60;7.78;;;19.50;58.00;;;;;;5093224;28;20035;-69
2022/06/17 00:03:53;;;;;;;13.85;8.10;;;19.40;58.10;;;;;;5093142;28;20104;-69
2022/06/17 00:06:22;;;;;;;17.80;8.55;;;19.40;58.90;;;;;;5093154;28;20016;-69
2022/06/17 00:08:49;;;;;;;10.15;8.15;;;19.30;59.60;;;;;;5092980;28;20044;-69
2022/06/17 00:11:31;;;;;;;9.07;7.68;;;19.40;59.10;;;;;;5093118;28;20020;-69
2022/06/17 00:13:57;;;;;;;11.95;9.77;;;19.50;58.70;;;;;;5093219;28;20087;-70
2022/06/17 00:16:25;;;;;;;11.90;9.57;;;19.50;58.40;;;;;;5093058;28;20050;-69
2022/06/17 00:18:51;;;;;;;11.55;9.75;;;19.50;58.80;;;;;;5093051;28;20029;-69
2022/06/17 00:21:24;;;;;;;12.23;10.20;;;19.20;59.80;;;;;;5093003;28;20059;-69
2022/06/17 00:23:50;;;;;;;13.57;9.80;;;19.20;60.40;;;;;;5093047;28;20024;-69
2022/06/17 00:26:16;;;;;;;11.63;9.25;;;19.20;60.50;;;;;;5092986;28;20025;-69
2022/06/17 00:28:42;;;;;;;12.80;10.32;;;19.10;61.00;;;;;;5092909;28;20056;-69
2022/06/17 00:31:07;;;;;;;11.98;9.95;;;19.20;60.90;;;;;;5092927;28;20112;-69
2022/06/17 00:33:33;;;;;;;12.93;10.38;;;19.20;61.10;;;;;;5093040;28;20032;-69
2022/06/17 00:35:59;;;;;;;13.20;10.10;;;19.20;61.60;;;;;;5092901;28;20043;-69
2022/06/17 00:38:29;;;;;;;11.82;10.27;;;19.10;61.50;;;;;;5092900;28;20048;-70
2022/06/17 00:40:56;;;;;;;14.32;10.77;;;19.10;61.30;;;;;;5092915;28;20031;-69
2022/06/17 00:43:33;;;;;;;14.00;10.88;;;19.20;61.20;;;;;;5092744;28;20024;-69
2022/06/17 00:46:05;;;;;;;13.15;10.25;;;19.30;61.30;;;;;;5093900;28;20532;-69
2022/06/17 00:48:37;;;;;;;13.35;10.85;;;19.30;61.30;;;;;;5096867;28;20031;-69
2022/06/17 00:51:15;;;;;;;14.02;10.75;;;19.30;61.70;;;;;;5096843;28;20094;-69
2022/06/17 00:53:54;;;;;;;14.55;10.63;;;19.30;62.10;;;;;;5096594;28;20044;-69
2022/06/17 00:56:30;;;;;;;14.10;10.50;;;19.30;61.70;;;;;;5096673;28;20031;-69
2022/06/17 00:59:04;;;;;;;12.38;10.68;;;19.20;62.00;;;;;;5096473;28;20115;-69
2022/06/17 01:01:51;;;;;;;17.38;10.77;;;19.30;62.10;;;;;;5096396;28;20028;-69
2022/06/17 01:04:23;;;;;;;13.15;11.05;;;19.20;62.00;;;;;;5096356;28;20032;-69
2022/06/17 01:06:54;;;;;;;13.65;10.88;;;19.20;62.20;;;;;;5096357;28;20021;-69
2022/06/17 01:12:15;;;;;;;11.15;9.88;;;19.30;61.70;;;;;;5096357;28;20510;-69
2022/06/17 01:14:42;;;;;;;12.93;10.43;;;19.30;61.50;;;;;;5096303;28;20020;-69
2022/06/17 01:17:12;;;;;;;12.45;10.07;;;19.40;61.40;;;;;;5096156;28;20020;-69
2022/06/17 01:19:42;;;;;;;13.05;10.95;;;19.30;61.50;;;;;;5096098;28;20024;-69
2022/06/17 01:22:23;;;;;;;13.80;10.57;;;19.10;62.00;;;;;;5096030;28;20025;-69
2022/06/17 01:24:52;;;;;;;13.10;10.48;;;19.00;62.80;;;;;;5096152;28;20016;-69
2022/06/17 01:27:21;;;;;;;13.88;10.85;;;18.90;62.70;;;;;;5095929;28;20080;-70
2022/06/17 01:29:48;;;;;;;13.60;11.65;;;19.00;62.40;;;;;;5095823;28;20028;-70
2022/06/17 01:32:16;;;;;;;17.10;12.07;;;19.10;62.40;;;;;;5094808;28;20033;-69
2022/06/17 01:34:42;;;;;;;15.70;12.02;;;19.00;62.40;;;;;;5095843;28;20032;-69
2022/06/17 01:37:09;;;;;;;13.43;11.35;;;19.00;62.50;;;;;;5094956;28;20088;-69
2022/06/17 01:39:35;;;;;;;15.50;10.80;;;19.00;62.60;;;;;;5095754;28;20036;-70
2022/06/17 01:42:01;;;;;;;15.68;11.48;;;18.90;62.90;;;;;;5095686;28;20040;-70
2022/06/17 01:44:33;;;;;;;14.23;10.57;;;18.90;63.10;;;;;;5095617;28;20032;-69
2022/06/17 01:47:02;;;;;;;14.35;11.23;;;19.00;63.00;;;;;;5095648;28;20080;-70
2022/06/17 01:49:42;;;;;;;15.82;11.30;;;19.00;62.90;;;;;;5095519;28;20020;-70
2022/06/17 01:52:14;;;;;;;12.65;11.15;;;18.70;63.70;;;;;;5095649;28;20025;-70
2022/06/17 01:54:56;;;;;;;13.17;11.37;;;18.50;64.50;;;;;;5095558;28;20029;-70
2022/06/17 01:57:28;;;;;;;14.48;10.63;;;18.50;64.60;;;;;;5094169;28;20020;-70
2022/06/17 01:59:58;;;;;;;12.60;11.30;;;18.50;64.70;;;;;;5095438;28;20021;-70
2022/06/17 02:02:25;;;;;;;13.15;11.75;;;18.60;64.50;;;;;;5095315;28;20028;-70
2022/06/17 02:04:57;;;;;;;13.55;10.80;;;18.60;64.10;;;;;;5095345;28;20028;-70
2022/06/17 02:07:45;;;;;;;12.50;11.15;;;18.60;63.70;;;;;;5095120;28;20044;-70
2022/06/17 02:10:11;;;;;;;12.98;10.60;;;18.60;63.70;;;;;;5095270;28;20028;-70
2022/06/17 02:12:37;;;;;;;14.23;11.10;;;18.50;64.10;;;;;;5095152;28;20514;-69
2022/06/17 02:15:03;;;;;;;15.40;11.80;;;18.40;64.30;;;;;;5095066;28;20028;-69
2022/06/17 02:17:34;;;;;;;13.25;11.05;;;18.50;64.40;;;;;;5095043;28;20028;-70
2022/06/17 02:20:01;;;;;;;16.00;11.23;;;18.50;64.20;;;;;;5095029;28;20024;-70
2022/06/17 02:22:32;;;;;;;16.38;10.63;;;18.60;64.00;;;;;;5094854;28;20032;-70
2022/06/17 02:25:03;;;;;;;15.35;11.52;;;18.50;63.70;;;;;;5094914;28;20021;-70
2022/06/17 02:27:31;;;;;;;13.70;10.98;;;18.40;63.60;;;;;;5094914;28;20021;-70
2022/06/17 02:29:58;;;;;;;18.08;11.77;;;18.40;63.40;;;;;;5094714;28;20570;-70
2022/06/17 02:32:24;;;;;;;15.73;11.45;;;18.30;63.60;;;;;;5094748;28;20024;-70
2022/06/17 02:35:03;;;;;;;18.13;12.13;;;18.10;64.10;;;;;;5094681;28;20031;-70
2022/06/17 02:37:30;;;;;;;16.42;12.10;;;18.20;64.30;;;;;;5094616;28;20032;-70
2022/06/17 02:39:59;;;;;;;16.92;12.55;;;18.20;64.70;;;;;;5094594;28;20028;-70
2022/06/17 02:42:31;;;;;;;15.10;11.95;;;18.20;65.00;;;;;;5094467;28;20491;-70
2022/06/17 02:45:25;;;;;;;16.23;11.98;;;18.30;64.60;;;;;;5094529;28;20054;-70
2022/06/17 02:47:52;;;;;;;13.48;11.15;;;18.40;64.10;;;;;;5092173;28;20111;-70
2022/06/17 02:50:23;;;;;;;15.82;12.48;;;18.40;63.70;;;;;;5093368;28;20047;-70
2022/06/17 02:52:51;;;;;;;16.25;11.48;;;18.40;63.90;;;;;;5094360;28;20034;-70
2022/06/17 02:55:26;;;;;;;15.40;11.98;;;18.20;64.40;;;;;;5094237;28;20071;-70
2022/06/17 02:58:00;;;;;;;16.35;12.48;;;17.90;65.60;;;;;;5094269;28;20035;-70
2022/06/17 03:00:25;;;;;;;14.35;12.02;;;17.90;65.60;;;;;;5094214;28;20020;-70
2022/06/17 03:02:52;;;;;;;14.82;12.15;;;18.00;65.20;;;;;;5094031;28;20485;-70
2022/06/17 03:05:31;;;;;;;15.20;11.65;;;18.10;65.50;;;;;;5093021;28;20056;-70
2022/06/17 03:07:59;;;;;;;14.57;12.05;;;17.90;65.30;;;;;;5093876;28;20198;-70
2022/06/17 03:10:37;;;;;;;16.75;12.15;;;17.90;65.60;;;;;;5092752;28;20029;-70
2022/06/17 03:13:11;;;;;;;14.68;12.13;;;18.10;65.50;;;;;;5093958;28;20035;-70
2022/06/17 03:15:43;;;;;;;16.75;12.38;;;18.10;65.40;;;;;;5094032;28;20025;-70
2022/06/17 03:18:10;;;;;;;15.95;12.40;;;18.10;65.20;;;;;;5093913;28;20028;-70
2022/06/17 03:20:37;;;;;;;14.85;11.57;;;18.20;65.10;;;;;;5093786;28;20036;-70
2022/06/17 03:23:18;;;;;;;18.30;12.23;;;18.10;65.20;;;;;;5093693;28;20033;-70
2022/06/17 03:26:00;;;;;;;14.52;11.75;;;17.90;65.20;;;;;;5093761;28;20020;-70
2022/06/17 03:28:32;;;;;;;14.63;12.10;;;17.90;65.70;;;;;;5093693;28;20036;-70
2022/06/17 03:31:07;;;;;;;16.33;12.43;;;17.90;65.90;;;;;;5093716;28;20031;-70
2022/06/17 03:33:37;;;;;;;16.58;12.70;;;17.80;65.90;;;;;;5093650;28;20029;-70
2022/06/17 03:36:25;;;;;;;19.23;12.85;;;17.70;66.20;;;;;;5093703;28;20037;-70
2022/06/17 03:38:55;;;;;;;14.52;12.43;;;17.70;66.70;;;;;;5092532;28;20467;-70
2022/06/17 03:41:30;;;;;;;16.52;12.70;;;17.50;67.40;;;;;;5093532;28;20051;-69
2022/06/17 03:44:20;;;;;;;15.85;13.05;;;17.50;67.30;;;;;;5093433;28;20063;-70
2022/06/17 03:46:55;;;;;;;15.18;12.25;;;17.60;67.00;;;;;;5093573;28;20023;-70
2022/06/17 03:49:30;;;;;;;17.38;13.13;;;17.70;67.00;;;;;;5093379;28;20050;-70
2022/06/17 03:52:02;;;;;;;17.30;13.70;;;17.80;66.80;;;;;;5093427;28;20080;-70
2022/06/17 03:54:27;;;;;;;19.90;13.95;;;17.70;66.70;;;;;;5093335;28;20036;-70
2022/06/17 03:56:53;;;;;;;17.90;13.43;;;17.50;67.20;;;;;;5093416;28;20029;-70
2022/06/17 03:59:23;;;;;;;18.20;12.95;;;17.50;67.90;;;;;;5093320;28;20035;-70
2022/06/17 04:02:04;;;;;;;16.80;13.15;;;17.50;68.10;;;;;;5093333;28;20090;-70
2022/06/17 04:04:34;;;;;;;15.85;12.95;;;17.70;68.00;;;;;;5093249;28;20020;-70
2022/06/17 04:07:00;;;;;;;16.95;12.60;;;17.90;67.30;;;;;;5093111;28;20058;-70
2022/06/17 04:09:29;;;;;;;18.83;13.23;;;17.90;67.60;;;;;;5093237;28;20016;-70
2022/06/17 04:11:59;;;;;;;16.27;13.50;;;18.00;67.70;;;;;;5093154;28;20100;-68
2022/06/17 04:14:48;;;;;;;15.57;13.93;;;18.00;67.40;;;;;;5093280;28;20042;-68
2022/06/17 04:17:35;;;;;;;14.90;13.13;;;18.10;68.10;;;;;;5093203;28;20032;-68
2022/06/17 04:20:39;;;;;;;19.00;14.50;;;18.10;68.80;;;;;;5092147;28;20032;-67
2022/06/17 04:23:12;;;;;;;19.83;13.82;;;18.10;69.30;;;;;;5088920;28;20037;-68
2022/06/17 04:26:01;;;;;;;17.73;14.10;;;18.10;69.10;;;;;;5097318;28;20020;-66
2022/06/17 04:28:36;;;;;;;21.70;15.10;;;18.20;69.10;;;;;;5097197;28;20040;-66
2022/06/17 04:31:06;;;;;;;17.83;15.02;;;18.30;68.40;;;;;;5097186;28;20043;-65
2022/06/17 04:34:05;;;;;;;20.35;14.32;;;18.40;67.80;;;;;;5097146;28;20025;-66
2022/06/17 04:36:48;;;;;;;20.05;15.18;;;18.40;67.40;;;;;;5085528;28;20044;-66
2022/06/17 04:39:21;;;;;;;21.00;15.35;;;18.40;68.00;;;;;;5096904;28;20040;-65
2022/06/17 04:41:53;;;;;;;22.52;15.80;;;18.40;68.10;;;;;;5095784;28;20029;-65
2022/06/17 04:44:19;;;;;;;19.30;15.43;;;18.40;68.90;;;;;;5097013;28;20012;-66
2022/06/17 04:47:03;;;;;;;22.25;15.40;;;18.40;68.20;;;;;;5096779;28;20047;-65
2022/06/17 04:49:33;;;;;;;21.25;14.98;;;18.50;68.10;;;;;;5096696;28;20084;-65
2022/06/17 04:52:02;;;;;;;19.10;14.48;;;18.60;67.80;;;;;;5096689;28;20025;-66
2022/06/17 04:54:29;;;;;;;17.98;14.50;;;18.60;67.70;;;;;;5096606;28;20039;-66
2022/06/17 04:56:58;;;;;;;20.25;14.27;;;18.60;67.40;;;;;;5096537;28;20063;-66
2022/06/17 04:59:33;;;;;;;18.92;15.15;;;18.60;67.80;;;;;;5096494;28;20013;-66
2022/06/17 05:02:20;;;;;;;20.05;14.43;;;18.70;68.30;;;;;;5096326;28;20025;-66
2022/06/17 05:04:55;;;;;;;19.75;14.35;;;18.80;67.90;;;;;;5095832;28;20043;-66
2022/06/17 05:07:21;;;;;;;19.23;14.35;;;18.80;67.00;;;;;;5096078;28;20049;-69
2022/06/17 05:09:59;;;;;;;22.45;14.90;;;18.80;66.40;;;;;;5096486;28;20032;-68
2022/06/17 05:12:36;;;;;;;18.42;13.43;;;18.80;66.60;;;;;;5096325;28;20032;-67
2022/06/17 05:15:15;;;;;;;20.20;14.57;;;18.80;65.80;;;;;;5096257;28;20028;-68
2022/06/17 05:17:41;;;;;;;19.10;12.68;;;18.80;65.10;;;;;;5096200;28;20024;-68
2022/06/17 05:20:09;;;;;;;18.98;14.43;;;18.80;65.00;;;;;;5096179;28;20035;-68
2022/06/17 05:23:05;;;;;;;16.23;13.88;;;18.90;64.90;;;;;;5095975;28;20028;-68
2022/06/17 05:25:39;;;;;;;20.10;14.15;;;18.90;65.90;;;;;;5095589;28;20041;-68
2022/06/17 05:28:07;;;;;;;21.88;14.48;;;18.90;65.50;;;;;;5095928;28;20027;-68
2022/06/17 05:30:41;;;;;;;20.70;14.35;;;18.90;65.30;;;;;;5095980;28;20084;-68
2022/06/17 05:33:14;;;;;;;17.95;14.15;;;18.90;65.50;;;;;;5095559;28;20033;-68
2022/06/17 05:35:39;;;;;;;19.38;14.75;;;18.90;65.10;;;;;;5096012;28;20035;-68
2022/06/17 05:38:05;;;;;;;17.90;13.70;;;19.00;65.30;;;;;;5095784;28;20041;-67
2022/06/17 05:40:33;;;;;;;18.20;14.05;;;19.10;64.90;;;;;;5095735;28;20426;-68
2022/06/17 05:42:58;;;;;;;17.52;13.73;;;19.10;64.40;;;;;;5095596;28;20024;-67
2022/06/17 05:45:25;;;;;;;24.20;14.63;;;19.10;64.10;;;;;;5094571;28;20033;-68
2022/06/17 05:47:52;;;;;;;20.67;14.55;;;19.20;64.10;;;;;;5095641;28;20020;-68
2022/06/17 05:50:19;;;;;;;21.75;14.70;;;19.30;64.00;;;;;;5095612;28;20017;-68
2022/06/17 05:52:54;;;;;;;19.65;14.55;;;19.30;63.90;;;;;;5095582;28;20021;-68
2022/06/17 05:55:21;;;;;;;17.80;14.57;;;19.40;65.50;;;;;;5095505;28;20029;-68
2022/06/17 05:57:47;;;;;;;18.08;14.50;;;19.50;64.20;;;;;;5095514;28;20032;-67
2022/06/17 06:00:14;;;;;;;18.05;14.10;;;19.50;63.30;;;;;;5095433;28;20037;-68
2022/06/17 06:02:40;;;;;;;18.95;14.52;;;19.60;63.90;;;;;;5095211;28;20029;-68
2022/06/17 06:05:07;;;;;;;20.48;12.82;;;19.70;63.80;;;;;;5095304;28;20044;-68
2022/06/17 06:07:33;;;;;;;16.30;12.32;;;19.80;62.00;;;;;;5094199;28;20036;-69
2022/06/17 06:09:59;;;;;;;15.05;12.55;;;19.80;62.50;;;;;;5094135;28;20034;-68
2022/06/17 06:12:53;;;;;;;18.65;13.20;;;19.80;62.90;;;;;;5095189;28;20028;-67
2022/06/17 06:15:11;;;;;;;17.65;12.40;;;19.80;63.10;;;;;;5094908;28;20038;-68
2022/06/17 06:17:37;;;;;;;17.75;12.85;;;19.90;62.70;;;;;;5094735;28;20094;-66
2022/06/17 06:20:03;;;;;;;17.60;13.07;;;20.00;63.00;;;;;;5095008;28;20064;-67
2022/06/17 06:22:29;;;;;;;18.23;12.23;;;19.90;62.70;;;;;;5095049;28;20060;-68
2022/06/17 06:24:54;;;;;;;16.90;12.65;;;20.00;62.50;;;;;;5094866;28;20047;-68
2022/06/17 06:27:20;;;;;;;19.80;13.48;;;20.10;63.20;;;;;;5094842;28;20028;-68
2022/06/17 06:29:45;;;;;;;17.75;12.82;;;20.20;63.00;;;;;;5094754;28;20028;-68
2022/06/17 06:32:11;;;;;;;18.33;12.52;;;20.20;62.10;;;;;;5094851;28;20054;-68
2022/06/17 06:34:37;;;;;;;18.60;12.77;;;20.20;62.20;;;;;;5094698;28;20044;-68
2022/06/17 06:37:03;;;;;;;21.27;12.75;;;20.20;63.20;;;;;;5094653;28;20044;-68
2022/06/17 06:39:29;;;;;;;18.08;13.20;;;20.30;61.60;;;;;;5094636;28;20051;-68
2022/06/17 06:41:54;;;;;;;16.73;12.63;;;20.40;62.40;;;;;;5093516;28;20032;-68
2022/06/17 06:44:20;;;;;;;17.42;12.02;;;20.40;61.00;;;;;;5093760;28;20024;-68
2022/06/17 06:46:47;;;;;;;18.75;13.07;;;20.40;61.30;;;;;;5094514;28;20032;-68
2022/06/17 06:49:12;;;;;;;20.80;13.73;;;20.50;61.40;;;;;;5094402;28;20031;-68
2022/06/17 06:51:38;;;;;;;18.55;12.63;;;20.60;60.30;;;;;;5094400;28;20025;-68
2022/06/17 06:54:04;;;;;;;19.15;12.93;;;20.60;60.40;;;;;;5094321;28;20052;-68
2022/06/17 06:56:30;;;;;;;20.73;12.60;;;20.60;61.00;;;;;;5094220;28;20021;-68
2022/06/17 06:58:55;;;;;;;17.65;11.70;;;20.70;60.70;;;;;;5094178;28;20025;-68
2022/06/17 07:01:21;;;;;;;17.63;11.27;;;20.70;60.70;;;;;;5094146;28;20115;-68
2022/06/17 07:03:47;;;;;;;17.08;11.15;;;20.80;60.20;;;;;;5094070;28;20020;-68
2022/06/17 07:06:13;;;;;;;17.95;10.98;;;20.90;60.40;;;;;;5094050;28;20452;-68
2022/06/17 07:08:39;;;;;;;14.43;9.88;;;20.90;60.80;;;;;;5093891;28;20096;-70
2022/06/17 07:11:08;;;;;;;14.60;9.55;;;21.00;60.10;;;;;;5094003;28;20028;-70
2022/06/17 07:13:34;;;;;;;13.63;9.25;;;21.10;59.50;;;;;;5093941;28;20028;-70
2022/06/17 07:16:01;;;;;;;10.90;8.18;;;21.10;59.30;;;;;;5092930;28;20084;-70
2022/06/17 07:18:32;;;;;;;9.45;7.50;;;21.20;58.50;;;;;;5093949;28;20029;-69
2022/06/17 07:21:02;;;;;;;14.25;7.72;;;21.20;56.70;;;;;;5092849;28;20028;-70
2022/06/17 07:23:37;;;;;;;11.18;7.25;;;21.20;57.80;;;;;;5093855;28;20036;-69
2022/06/17 07:26:28;;;;;;;11.43;7.00;;;21.20;56.10;;;;;;5093765;28;20038;-69
2022/06/17 07:28:54;;;;;;;10.82;6.93;;;21.20;57.20;;;;;;5093141;28;20037;-70
2022/06/17 07:31:22;;;;;;;10.50;6.57;;;21.20;55.50;;;;;;5093623;28;20108;-68
2022/06/17 07:33:48;;;;;;;11.13;6.75;;;21.20;55.20;;;;;;5093562;28;20020;-68
2022/06/17 07:41:50;;;;;;;10.93;7.03;;;21.40;56.70;;;;;;5093661;28;20031;-67
2022/06/17 07:44:17;;;;;;;10.75;7.50;;;21.40;56.60;;;;;;5093352;28;20028;-67
2022/06/17 07:46:43;;;;;;;12.45;6.80;;;21.40;55.90;;;;;;5093529;28;20035;-68
2022/06/17 07:49:10;;;;;;;11.25;6.40;;;21.40;55.80;;;;;;5093470;28;20016;-68
2022/06/17 07:51:35;;;;;;;8.45;6.28;;;21.40;54.30;;;;;;5093328;28;20025;-67
2022/06/17 07:54:01;;;;;;;12.77;6.45;;;21.50;55.10;;;;;;5093240;28;20056;-68
2022/06/17 07:56:27;;;;;;;9.25;6.03;;;21.40;55.30;;;;;;5093230;28;20024;-67
2022/06/17 07:58:52;;;;;;;10.32;5.75;;;21.50;54.40;;;;;;5093268;28;20044;-67
2022/06/17 08:01:18;;;;;;;7.13;5.65;;;21.50;54.10;;;;;;5092192;28;20092;-68
2022/06/17 08:03:43;;;;;;;9.43;5.63;;;21.70;53.80;;;;;;5093164;28;20062;-68
2022/06/17 08:06:11;;;;;;;9.57;6.07;;;21.80;55.90;;;;;;5093148;28;20029;-67
2022/06/17 08:08:37;;;;;;;8.30;5.30;;;22.00;53.60;;;;;;5092964;28;20072;-67
2022/06/17 08:11:03;;;;;;;8.63;5.30;;;22.00;54.50;;;;;;5093105;28;20032;-67
2022/06/17 08:13:29;;;;;;;11.13;5.20;;;22.00;53.40;;;;;;5093123;28;20459;-67
2022/06/17 08:15:58;;;;;;;7.22;4.82;;;22.10;52.90;;;;;;5093120;28;20037;-67
2022/06/17 08:18:23;;;;;;;9.40;4.90;;;22.00;54.10;;;;;;5093069;28;20028;-68
2022/06/17 08:20:50;;;;;;;9.70;5.13;;;22.10;54.10;;;;;;5093068;28;20020;-67
2022/06/17 08:23:16;;;;;;;7.00;5.05;;;22.20;56.00;;;;;;5092950;28;20032;-68
2022/06/17 08:25:42;;;;;;;7.45;4.90;;;22.30;53.40;;;;;;5092969;28;20055;-68
2022/06/17 08:28:10;;;;;;;7.78;4.60;;;22.50;53.90;;;;;;5092894;28;20009;-68
2022/06/17 08:30:40;;;;;;;6.78;4.90;;;22.60;55.40;;;;;;5092997;28;20085;-68
2022/06/17 08:33:06;;;;;;;7.85;4.63;;;22.70;54.70;;;;;;5092963;28;20020;-67
2022/06/17 08:35:38;;;;;;;6.40;4.68;;;22.80;51.30;;;;;;5092886;28;20383;-67
2022/06/17 08:38:12;;;;;;;8.80;5.10;;;22.90;51.60;;;;;;5092981;28;20020;-67
2022/06/17 08:40:52;;;;;;;9.85;5.18;;;22.90;52.20;;;;;;5093016;28;20054;-69
2022/06/17 08:43:17;;;;;;;7.85;4.97;;;23.10;52.50;;;;;;5092780;28;20091;-67
2022/06/17 08:46:14;;;;;;;8.18;5.20;;;23.20;52.90;;;;;;5092815;28;20021;-67
2022/06/17 08:49:04;;;;;;;9.15;5.40;;;23.30;50.80;;;;;;5092849;28;20023;-67
2022/06/17 08:51:45;;;;;;;7.30;5.32;;;23.30;50.00;;;;;;5091831;28;20028;-67
2022/06/17 08:54:16;;;;;;;8.75;5.00;;;23.30;51.30;;;;;;5092872;28;20025;-67
2022/06/17 08:57:10;;;;;;;6.00;4.67;;;23.30;51.00;;;;;;5092758;28;20028;-67
2022/06/17 09:00:11;;;;;;;7.47;4.63;;;23.30;49.00;;;;;;5092752;28;20048;-67
2022/06/17 09:03:14;;;;;;;7.25;4.07;;;23.40;48.10;;;;;;5079374;28;20064;-67
2022/06/17 09:06:26;;;;;;;7.65;4.70;;;23.40;48.20;;;;;;5092634;28;20032;-67
2022/06/17 09:09:07;;;;;;;8.25;4.95;;;23.60;47.90;;;;;;5096212;28;20070;-67
2022/06/17 09:11:53;;;;;;;11.90;4.70;;;23.70;48.20;;;;;;5096450;28;20020;-67
2022/06/17 09:14:39;;;;;;;8.40;5.18;;;23.80;47.40;;;;;;5096381;28;20084;-67
2022/06/17 09:17:45;;;;;;;6.97;4.65;;;23.80;46.30;;;;;;5096206;28;20066;-67
2022/06/17 09:20:17;;;;;;;7.00;5.00;;;23.80;47.70;;;;;;5095937;28;20107;-67
2022/06/17 09:22:49;;;;;;;9.52;4.50;;;23.90;47.50;;;;;;5096122;28;20027;-67
2022/06/17 09:25:19;;;;;;;10.70;5.07;;;23.90;46.90;;;;;;5096176;28;20044;-67
2022/06/17 09:27:48;;;;;;;7.25;5.22;;;24.10;48.10;;;;;;5094939;28;20020;-67
2022/06/17 09:30:20;;;;;;;6.85;5.28;;;24.10;46.80;;;;;;5095990;28;20042;-67
2022/06/17 09:32:45;;;;;;;7.68;4.63;;;24.10;45.60;;;;;;5096089;28;20131;-67
2022/06/17 09:35:29;;;;;;;8.00;4.53;;;24.10;45.20;;;;;;5095875;28;20029;-67
2022/06/17 09:38:05;;;;;;;6.75;4.25;;;24.30;45.50;;;;;;5095902;28;20016;-67
2022/06/17 09:40:36;;;;;;;9.77;4.38;;;24.30;45.90;;;;;;5095840;28;20468;-67
2022/06/17 09:43:10;;;;;;;8.23;4.65;;;24.30;43.90;;;;;;5095566;28;20029;-67
2022/06/17 09:46:17;;;;;;;5.72;3.72;;;24.40;44.50;;;;;;5095763;28;20020;-67
2022/06/17 09:49:02;;;;;;;4.05;3.13;;;24.50;43.90;;;;;;5095659;28;20012;-67
2022/06/17 09:51:46;;;;;;;8.85;3.50;;;24.50;43.50;;;;;;5095620;28;20104;-67
2022/06/17 09:54:14;;;;;;;4.75;2.92;;;24.50;43.30;;;;;;5095540;28;20024;-67
2022/06/17 09:56:57;;;;;;;5.07;2.90;;;24.60;43.90;;;;;;5095496;28;20039;-67
2022/06/17 09:59:26;;;;;;;6.03;2.80;;;24.70;43.80;;;;;;5095537;28;20039;-67
2022/06/17 10:01:54;;;;;;;4.63;3.45;;;24.70;43.90;;;;;;5095370;28;20062;-67
2022/06/17 10:04:20;;;;;;;4.72;3.17;;;24.80;44.70;;;;;;5095325;28;20076;-67
2022/06/17 10:07:16;;;;;;;5.47;3.45;;;25.00;44.80;;;;;;5095335;28;20032;-67
2022/06/17 10:10:31;;;;;;;4.32;2.78;;;25.00;41.80;;;;;;5095337;28;20036;-67
2022/06/17 10:13:26;;;;;;;6.25;3.47;;;25.10;40.40;;;;;;5061278;28;20040;-67
2022/06/17 10:19:39;;;;;;;6.28;3.60;;;25.20;42.80;;;;;;5094085;28;20070;-67
2022/06/17 10:22:04;;;;;;;5.78;3.13;;;25.20;43.30;;;;;;5093982;28;20024;-67
2022/06/17 10:24:45;;;;;;;4.80;3.30;;;25.30;42.80;;;;;;5094962;28;20031;-67
2022/06/17 10:27:24;;;;;;;8.02;4.20;;;25.20;41.50;;;;;;5095034;28;20024;-67
2022/06/17 10:30:11;;;;;;;7.82;4.43;;;25.30;43.40;;;;;;5094824;28;20023;-67
2022/06/17 10:32:41;;;;;;;13.02;4.43;;;25.40;42.40;;;;;;5094865;28;20017;-67
2022/06/17 10:35:23;;;;;;;5.28;3.67;;;25.40;44.70;;;;;;5094888;28;20479;-67
2022/06/17 10:37:49;;;;;;;8.38;4.88;;;25.50;43.00;;;;;;5094674;28;20021;-67
2022/06/17 10:40:17;;;;;;;7.38;4.50;;;25.70;43.60;;;;;;5094566;28;20024;-67
2022/06/17 10:42:46;;;;;;;9.82;4.25;;;25.70;42.60;;;;;;5094511;28;20025;-67
2022/06/17 10:45:15;;;;;;;5.78;3.95;;;25.80;43.40;;;;;;5094501;28;20017;-67
2022/06/17 10:48:02;;;;;;;6.35;3.90;;;25.70;44.20;;;;;;5094595;28;20035;-67
2022/06/17 10:50:30;;;;;;;6.07;4.07;;;25.80;43.00;;;;;;5094493;28;20024;-67
2022/06/17 10:53:09;;;;;;;6.45;4.20;;;25.80;43.10;;;;;;5094354;28;20085;-67
2022/06/17 10:55:39;;;;;;;6.82;3.80;;;25.90;42.00;;;;;;5094368;28;20021;-67
2022/06/17 10:58:09;;;;;;;5.95;3.83;;;25.90;44.10;;;;;;5094348;28;20024;-67
2022/06/17 11:01:05;;;;;;;6.38;3.45;;;26.10;43.10;;;;;;5094196;28;20091;-67
2022/06/17 11:03:35;;;;;;;8.10;3.33;;;26.20;41.60;;;;;;5086001;28;20056;-67
2022/06/17 11:06:08;;;;;;;7.55;4.47;;;26.20;41.10;;;;;;5094298;28;20029;-67
2022/06/17 11:08:59;;;;;;;8.23;4.20;;;26.00;40.00;;;;;;5093951;28;20044;-67
2022/06/17 11:14:36;;;;;;;5.60;3.33;;;26.20;42.20;;;;;;5094007;28;20066;-67
2022/06/17 11:17:18;;;;;;;8.23;4.20;;;26.30;39.90;;;;;;5094048;28;20024;-66
2022/06/17 11:19:46;;;;;;;6.80;4.13;;;26.50;41.30;;;;;;5093960;28;20027;-66
2022/06/17 11:22:36;;;;;;;8.27;4.32;;;26.40;40.30;;;;;;5093720;28;20059;-67
2022/06/17 11:25:28;;;;;;;6.20;4.35;;;26.50;41.10;;;;;;5086565;28;20029;-66
2022/06/17 11:28:10;;;;;;;5.25;3.80;;;26.60;41.30;;;;;;5093701;28;20463;-66
2022/06/17 11:30:48;;;;;;;6.35;3.85;;;26.70;41.70;;;;;;5093554;28;20024;-66
2022/06/17 11:33:21;;;;;;;7.63;4.07;;;26.80;39.50;;;;;;5092627;28;20028;-66
2022/06/17 11:36:02;;;;;;;7.20;4.53;;;26.70;39.90;;;;;;5093724;28;20029;-67
2022/06/17 11:38:31;;;;;;;7.97;4.95;;;26.80;37.50;;;;;;5093596;28;20462;-66
2022/06/17 11:40:57;;;;;;;8.02;4.88;;;26.80;38.70;;;;;;5092557;28;20021;-67
2022/06/17 11:43:26;;;;;;;9.02;4.90;;;26.90;38.50;;;;;;5093394;28;20032;-67
2022/06/17 11:45:53;;;;;;;6.32;4.43;;;26.90;38.30;;;;;;5093467;28;20078;-67
2022/06/17 11:48:20;;;;;;;6.88;4.20;;;26.90;39.30;;;;;;5093388;28;20033;-66
2022/06/17 11:51:06;;;;;;;6.00;4.18;;;27.00;39.30;;;;;;5093385;28;20017;-67
2022/06/17 11:53:47;;;;;;;5.65;4.30;;;27.10;37.10;;;;;;5093554;28;20074;-66
2022/06/17 11:56:37;;;;;;;9.90;5.60;;;27.10;37.00;;;;;;5093367;28;20024;-67
2022/06/17 11:59:21;;;;;;;10.60;5.15;;;27.10;37.80;;;;;;5093489;28;20028;-66
2022/06/17 12:01:55;;;;;;;7.63;5.05;;;27.20;38.80;;;;;;5093312;28;20029;-67
2022/06/17 12:04:48;;;;;;;9.45;6.00;;;27.20;36.10;;;;;;5093213;28;20025;-66
2022/06/17 12:07:41;;;;;;;8.77;5.68;;;27.30;39.10;;;;;;5093210;28;20044;-68
2022/06/17 12:10:40;;;;;;;6.75;4.43;;;27.30;37.80;;;;;;5093316;28;20025;-67
2022/06/17 12:13:54;;;;;;;8.07;5.63;;;27.20;37.20;;;;;;5093366;28;20414;-67
2022/06/17 12:16:34;;;;;;;9.07;4.82;;;27.40;37.50;;;;;;5080090;28;20115;-69
2022/06/17 12:19:00;;;;;;;8.20;5.18;;;27.50;38.50;;;;;;5093151;28;20032;-67
2022/06/17 12:21:29;;;;;;;8.75;6.10;;;27.50;38.60;;;;;;5093079;28;20028;-67
2022/06/17 12:24:23;;;;;;;10.15;5.65;;;27.60;39.50;;;;;;5092983;28;20051;-67
2022/06/17 12:27:14;;;;;;;8.00;4.80;;;27.80;38.20;;;;;;5093102;28;20043;-67
2022/06/17 12:30:28;;;;;;;8.00;5.47;;;27.80;38.40;;;;;;5092983;28;20032;-67
2022/06/17 12:33:13;;;;;;;7.00;4.70;;;27.80;39.70;;;;;;5051066;28;20056;-66
2022/06/17 12:35:46;;;;;;;7.93;3.95;;;27.80;38.10;;;;;;5051186;28;20049;-69
2022/06/17 12:38:42;;;;;;;6.22;3.83;;;27.80;38.90;;;;;;5079295;28;20033;-69
2022/06/17 12:41:23;;;;;;;6.57;3.80;;;28.00;39.80;;;;;;5071511;28;20041;-69
2022/06/17 12:44:15;;;;;;;7.78;4.15;;;28.00;39.40;;;;;;5096787;28;20033;-69
2022/06/17 12:46:59;;;;;;;5.67;3.43;;;28.00;37.40;;;;;;5096855;28;20058;-69
2022/06/17 12:55:42;;;;;;;5.07;3.85;;;28.10;38.60;;;;;;5054839;28;20045;-68
2022/06/17 12:58:28;;;;;;;5.32;3.20;;;28.20;39.80;;;;;;5092136;28;20036;-68
2022/06/17 13:01:07;;;;;;;6.03;3.78;;;28.30;37.10;;;;;;5096631;28;20032;-68
2022/06/17 13:04:04;;;;;;;4.60;3.50;;;28.20;37.70;;;;;;5096503;28;20057;-68
2022/06/17 13:06:51;;;;;;;5.38;3.50;;;28.40;38.60;;;;;;5069987;28;20472;-68
2022/06/17 13:09:36;;;;;;;5.88;3.03;;;28.40;38.40;;;;;;5096256;28;20104;-68
2022/06/17 13:12:25;;;;;;;6.55;2.97;;;28.50;37.80;;;;;;5096497;28;20024;-68
2022/06/17 13:15:20;;;;;;;4.57;2.70;;;28.60;35.60;;;;;;5096310;28;20024;-68
2022/06/17 13:17:57;;;;;;;4.45;2.20;;;28.50;37.40;;;;;;5096237;28;20017;-68
2022/06/17 13:20:26;;;;;;;2.72;2.22;;;28.50;37.10;;;;;;5096348;28;20375;-68
2022/06/17 13:23:00;;;;;;;5.57;2.30;;;28.60;36.40;;;;;;5096082;28;20029;-68
2022/06/17 13:25:56;;;;;;;4.65;2.20;;;28.60;36.40;;;;;;5095122;28;20047;-68
2022/06/17 13:28:39;;;;;;;3.05;1.92;;;28.60;33.20;;;;;;5095967;28;20052;-68
2022/06/17 13:31:18;;;;;;;4.20;2.33;;;28.70;35.90;;;;;;5096172;28;20020;-67
2022/06/17 13:33:53;;;;;;;3.17;1.85;;;28.80;36.40;;;;;;5096050;28;20024;-68